sensor_id;sensor_type;location;lat;lon;timestamp;P1;durP1;ratioP1;P2;durP2;ratioP2
49942;SDS011;36011;53.362;58.948;2023-12-20T00:00:47;2.85;;;2.10;;
49942;SDS011;36011;53.362;58.948;2023-12-20T00:03:48;2.40;;;1.80;;
49942;SDS011;36011;53.362;58.948;2023-12-20T00:06:52;3.33;;;2.10;;
49942;SDS011;36011;53.362;58.948;2023-12-20T00:09:53;3.03;;;2.25;;
49942;SDS011;36011;53.362;58.948;2023-12-20T00:12:55;2.75;;;1.95;;
49942;SDS011;36011;53.362;58.948;2023-12-20T00:16:00;3.00;;;2.00;;
49942;SDS011;36011;53.362;58.948;2023-12-20T00:19:01;2.83;;;2.10;;
49942;SDS011;36011;53.362;58.948;2023-12-20T00:22:06;3.10;;;1.55;;
49942;SDS011;36011;53.362;58.948;2023-12-20T00:25:11;2.15;;;1.90;;
49942;SDS011;36011;53.362;58.948;2023-12-20T00:28:17;4.07;;;2.05;;
49942;SDS011;36011;53.362;58.948;2023-12-20T00:31:22;3.90;;;2.55;;
49942;SDS011;36011;53.362;58.948;2023-12-20T00:34:29;3.30;;;2.00;;
49942;SDS011;36011;53.362;58.948;2023-12-20T00:37:30;5.35;;;2.97;;
49942;SDS011;36011;53.362;58.948;2023-12-20T00:40:36;4.43;;;2.78;;
49942;SDS011;36011;53.362;58.948;2023-12-20T00:43:40;2.10;;;1.88;;
49942;SDS011;36011;53.362;58.948;2023-12-20T00:46:41;3.58;;;2.05;;
49942;SDS011;36011;53.362;58.948;2023-12-20T00:49:45;3.08;;;2.45;;
49942;SDS011;36011;53.362;58.948;2023-12-20T00:52:48;1.60;;;1.40;;
49942;SDS011;36011;53.362;58.948;2023-12-20T00:55:52;2.03;;;1.60;;
49942;SDS011;36011;53.362;58.948;2023-12-20T00:58:57;2.60;;;1.42;;
49942;SDS011;36011;53.362;58.948;2023-12-20T01:02:01;2.00;;;1.77;;
49942;SDS011;36011;53.362;58.948;2023-12-20T01:05:07;2.72;;;1.77;;
49942;SDS011;36011;53.362;58.948;2023-12-20T01:08:17;1.70;;;1.38;;
49942;SDS011;36011;53.362;58.948;2023-12-20T01:11:20;2.22;;;1.83;;
49942;SDS011;36011;53.362;58.948;2023-12-20T01:14:24;2.30;;;2.08;;
49942;SDS011;36011;53.362;58.948;2023-12-20T01:17:25;1.77;;;1.58;;
49942;SDS011;36011;53.362;58.948;2023-12-20T01:20:27;3.05;;;2.13;;
49942;SDS011;36011;53.362;58.948;2023-12-20T01:23:31;1.98;;;1.42;;
49942;SDS011;36011;53.362;58.948;2023-12-20T01:26:33;3.17;;;2.22;;
49942;SDS011;36011;53.362;58.948;2023-12-20T01:29:35;1.63;;;1.52;;
49942;SDS011;36011;53.362;58.948;2023-12-20T01:32:39;3.25;;;1.40;;
49942;SDS011;36011;53.362;58.948;2023-12-20T01:35:46;1.63;;;1.45;;
49942;SDS011;36011;53.362;58.948;2023-12-20T01:38:49;1.80;;;1.45;;
49942;SDS011;36011;53.362;58.948;2023-12-20T01:41:51;1.67;;;1.58;;
49942;SDS011;36011;53.362;58.948;2023-12-20T01:44:55;1.98;;;1.60;;
49942;SDS011;36011;53.362;58.948;2023-12-20T01:47:58;2.28;;;1.98;;
49942;SDS011;36011;53.362;58.948;2023-12-20T01:51:03;2.35;;;2.15;;
49942;SDS011;36011;53.362;58.948;2023-12-20T01:54:08;4.07;;;2.50;;
49942;SDS011;36011;53.362;58.948;2023-12-20T01:57:11;1.20;;;1.10;;
49942;SDS011;36011;53.362;58.948;2023-12-20T02:00:13;4.00;;;2.05;;
49942;SDS011;36011;53.362;58.948;2023-12-20T02:03:16;3.45;;;2.47;;
49942;SDS011;36011;53.362;58.948;2023-12-20T02:06:22;4.80;;;2.65;;
49942;SDS011;36011;53.362;58.948;2023-12-20T02:09:26;3.92;;;2.28;;
49942;SDS011;36011;53.362;58.948;2023-12-20T02:12:31;3.05;;;2.30;;
49942;SDS011;36011;53.362;58.948;2023-12-20T02:15:32;2.15;;;1.90;;
49942;SDS011;36011;53.362;58.948;2023-12-20T02:18:42;2.60;;;2.28;;
49942;SDS011;36011;53.362;58.948;2023-12-20T02:21:45;2.90;;;2.28;;
49942;SDS011;36011;53.362;58.948;2023-12-20T02:24:47;2.05;;;1.17;;
49942;SDS011;36011;53.362;58.948;2023-12-20T02:27:54;1.90;;;1.73;;
49942;SDS011;36011;53.362;58.948;2023-12-20T02:30:56;3.05;;;1.70;;
49942;SDS011;36011;53.362;58.948;2023-12-20T02:34:00;1.60;;;1.50;;
49942;SDS011;36011;53.362;58.948;2023-12-20T02:37:03;3.00;;;2.15;;
49942;SDS011;36011;53.362;58.948;2023-12-20T02:40:10;3.75;;;2.38;;
49942;SDS011;36011;53.362;58.948;2023-12-20T02:43:14;4.22;;;2.17;;
49942;SDS011;36011;53.362;58.948;2023-12-20T02:46:21;2.33;;;2.13;;
49942;SDS011;36011;53.362;58.948;2023-12-20T02:49:27;1.27;;;1.13;;
49942;SDS011;36011;53.362;58.948;2023-12-20T02:52:29;2.15;;;1.95;;
49942;SDS011;36011;53.362;58.948;2023-12-20T02:55:30;3.95;;;2.47;;
49942;SDS011;36011;53.362;58.948;2023-12-20T02:58:37;3.70;;;1.52;;
49942;SDS011;36011;53.362;58.948;2023-12-20T03:01:42;2.78;;;2.22;;
49942;SDS011;36011;53.362;58.948;2023-12-20T03:04:46;2.78;;;2.13;;
49942;SDS011;36011;53.362;58.948;2023-12-20T03:07:50;3.85;;;3.00;;
49942;SDS011;36011;53.362;58.948;2023-12-20T03:10:54;5.35;;;2.67;;
49942;SDS011;36011;53.362;58.948;2023-12-20T03:13:56;3.10;;;2.67;;
49942;SDS011;36011;53.362;58.948;2023-12-20T03:17:02;2.42;;;1.85;;
49942;SDS011;36011;53.362;58.948;2023-12-20T03:20:03;3.33;;;2.90;;
49942;SDS011;36011;53.362;58.948;2023-12-20T03:23:06;5.03;;;2.10;;
49942;SDS011;36011;53.362;58.948;2023-12-20T03:26:08;3.38;;;2.17;;
49942;SDS011;36011;53.362;58.948;2023-12-20T03:29:12;2.65;;;2.25;;
49942;SDS011;36011;53.362;58.948;2023-12-20T03:32:16;2.47;;;1.95;;
49942;SDS011;36011;53.362;58.948;2023-12-20T03:35:22;2.83;;;2.42;;
49942;SDS011;36011;53.362;58.948;2023-12-20T03:38:24;2.20;;;2.03;;
49942;SDS011;36011;53.362;58.948;2023-12-20T03:41:25;4.32;;;2.88;;
49942;SDS011;36011;53.362;58.948;2023-12-20T03:44:26;4.32;;;3.00;;
49942;SDS011;36011;53.362;58.948;2023-12-20T03:47:28;4.07;;;2.88;;
49942;SDS011;36011;53.362;58.948;2023-12-20T03:50:31;3.25;;;2.67;;
49942;SDS011;36011;53.362;58.948;2023-12-20T03:53:33;3.95;;;2.65;;
49942;SDS011;36011;53.362;58.948;2023-12-20T03:56:37;6.00;;;4.10;;
49942;SDS011;36011;53.362;58.948;2023-12-20T03:59:39;3.50;;;2.60;;
49942;SDS011;36011;53.362;58.948;2023-12-20T04:02:44;7.22;;;4.35;;
49942;SDS011;36011;53.362;58.948;2023-12-20T04:05:52;9.45;;;5.45;;
49942;SDS011;36011;53.362;58.948;2023-12-20T04:08:54;6.50;;;4.07;;
49942;SDS011;36011;53.362;58.948;2023-12-20T04:12:00;8.52;;;5.22;;
49942;SDS011;36011;53.362;58.948;2023-12-20T04:15:02;10.80;;;4.93;;
49942;SDS011;36011;53.362;58.948;2023-12-20T04:18:12;12.65;;;7.22;;
49942;SDS011;36011;53.362;58.948;2023-12-20T04:21:18;9.25;;;5.88;;
49942;SDS011;36011;53.362;58.948;2023-12-20T04:24:22;7.68;;;4.90;;
49942;SDS011;36011;53.362;58.948;2023-12-20T04:27:27;5.88;;;4.55;;
49942;SDS011;36011;53.362;58.948;2023-12-20T04:30:30;9.30;;;6.45;;
49942;SDS011;36011;53.362;58.948;2023-12-20T04:33:31;10.73;;;5.22;;
49942;SDS011;36011;53.362;58.948;2023-12-20T04:36:35;8.45;;;5.40;;
49942;SDS011;36011;53.362;58.948;2023-12-20T04:39:36;8.55;;;5.20;;
49942;SDS011;36011;53.362;58.948;2023-12-20T04:42:43;6.70;;;4.60;;
49942;SDS011;36011;53.362;58.948;2023-12-20T04:45:49;6.70;;;5.07;;
49942;SDS011;36011;53.362;58.948;2023-12-20T04:48:51;10.32;;;5.97;;
49942;SDS011;36011;53.362;58.948;2023-12-20T04:51:55;11.68;;;7.03;;
49942;SDS011;36011;53.362;58.948;2023-12-20T04:54:57;8.10;;;4.43;;
49942;SDS011;36011;53.362;58.948;2023-12-20T04:57:58;6.00;;;4.03;;
49942;SDS011;36011;53.362;58.948;2023-12-20T05:01:00;8.80;;;4.47;;
49942;SDS011;36011;53.362;58.948;2023-12-20T05:04:06;6.35;;;4.28;;
49942;SDS011;36011;53.362;58.948;2023-12-20T05:07:10;11.77;;;7.72;;
49942;SDS011;36011;53.362;58.948;2023-12-20T05:10:12;7.63;;;5.47;;
49942;SDS011;36011;53.362;58.948;2023-12-20T05:13:13;9.38;;;5.50;;
49942;SDS011;36011;53.362;58.948;2023-12-20T05:16:17;10.63;;;6.45;;
49942;SDS011;36011;53.362;58.948;2023-12-20T05:19:22;6.97;;;4.82;;
49942;SDS011;36011;53.362;58.948;2023-12-20T05:22:25;6.95;;;5.13;;
49942;SDS011;36011;53.362;58.948;2023-12-20T05:25:27;8.43;;;4.95;;
49942;SDS011;36011;53.362;58.948;2023-12-20T05:28:32;9.27;;;6.32;;
49942;SDS011;36011;53.362;58.948;2023-12-20T05:31:37;8.13;;;4.82;;
49942;SDS011;36011;53.362;58.948;2023-12-20T05:34:42;5.07;;;3.88;;
49942;SDS011;36011;53.362;58.948;2023-12-20T05:37:50;5.40;;;4.30;;
49942;SDS011;36011;53.362;58.948;2023-12-20T05:40:56;5.75;;;3.97;;
49942;SDS011;36011;53.362;58.948;2023-12-20T05:43:57;6.82;;;4.85;;
49942;SDS011;36011;53.362;58.948;2023-12-20T05:47:02;5.32;;;3.50;;
49942;SDS011;36011;53.362;58.948;2023-12-20T05:50:06;7.07;;;4.28;;
49942;SDS011;36011;53.362;58.948;2023-12-20T05:53:10;6.18;;;4.57;;
49942;SDS011;36011;53.362;58.948;2023-12-20T05:56:11;4.68;;;3.30;;
49942;SDS011;36011;53.362;58.948;2023-12-20T05:59:16;5.47;;;3.70;;
49942;SDS011;36011;53.362;58.948;2023-12-20T06:02:22;6.38;;;4.15;;
49942;SDS011;36011;53.362;58.948;2023-12-20T06:05:26;6.53;;;5.28;;
49942;SDS011;36011;53.362;58.948;2023-12-20T06:08:27;4.88;;;3.63;;
49942;SDS011;36011;53.362;58.948;2023-12-20T06:11:28;6.00;;;3.90;;
49942;SDS011;36011;53.362;58.948;2023-12-20T06:14:30;4.18;;;3.28;;
49942;SDS011;36011;53.362;58.948;2023-12-20T06:17:37;4.35;;;2.85;;
49942;SDS011;36011;53.362;58.948;2023-12-20T06:20:38;4.13;;;2.55;;
49942;SDS011;36011;53.362;58.948;2023-12-20T06:23:44;6.82;;;2.45;;
49942;SDS011;36011;53.362;58.948;2023-12-20T06:26:51;2.78;;;1.75;;
49942;SDS011;36011;53.362;58.948;2023-12-20T06:29:52;5.15;;;2.90;;
49942;SDS011;36011;53.362;58.948;2023-12-20T06:32:56;4.35;;;3.42;;
49942;SDS011;36011;53.362;58.948;2023-12-20T06:36:02;2.42;;;2.22;;
49942;SDS011;36011;53.362;58.948;2023-12-20T06:39:05;2.70;;;2.10;;
49942;SDS011;36011;53.362;58.948;2023-12-20T06:42:07;2.70;;;2.15;;
49942;SDS011;36011;53.362;58.948;2023-12-20T06:45:11;3.35;;;2.38;;
49942;SDS011;36011;53.362;58.948;2023-12-20T06:48:13;2.45;;;1.85;;
49942;SDS011;36011;53.362;58.948;2023-12-20T06:51:17;3.33;;;2.05;;
49942;SDS011;36011;53.362;58.948;2023-12-20T06:54:23;3.00;;;2.00;;
49942;SDS011;36011;53.362;58.948;2023-12-20T06:57:24;3.53;;;2.17;;
49942;SDS011;36011;53.362;58.948;2023-12-20T07:00:29;4.10;;;2.33;;
49942;SDS011;36011;53.362;58.948;2023-12-20T07:03:31;1.83;;;1.67;;
49942;SDS011;36011;53.362;58.948;2023-12-20T07:06:37;1.70;;;1.60;;
49942;SDS011;36011;53.362;58.948;2023-12-20T07:09:38;2.72;;;2.22;;
49942;SDS011;36011;53.362;58.948;2023-12-20T07:12:41;3.27;;;2.47;;
49942;SDS011;36011;53.362;58.948;2023-12-20T07:15:45;2.70;;;1.38;;
49942;SDS011;36011;53.362;58.948;2023-12-20T07:18:49;1.67;;;1.42;;
49942;SDS011;36011;53.362;58.948;2023-12-20T07:21:53;2.47;;;2.05;;
49942;SDS011;36011;53.362;58.948;2023-12-20T07:24:54;3.08;;;2.05;;
49942;SDS011;36011;53.362;58.948;2023-12-20T07:28:01;4.00;;;1.90;;
49942;SDS011;36011;53.362;58.948;2023-12-20T07:31:05;1.73;;;1.50;;
49942;SDS011;36011;53.362;58.948;2023-12-20T07:34:09;2.83;;;2.47;;
49942;SDS011;36011;53.362;58.948;2023-12-20T07:37:10;4.65;;;2.92;;
49942;SDS011;36011;53.362;58.948;2023-12-20T07:40:13;3.00;;;2.15;;
49942;SDS011;36011;53.362;58.948;2023-12-20T07:43:16;5.05;;;2.25;;
49942;SDS011;36011;53.362;58.948;2023-12-20T07:46:22;2.28;;;1.23;;
49942;SDS011;36011;53.362;58.948;2023-12-20T07:49:26;4.78;;;2.30;;
49942;SDS011;36011;53.362;58.948;2023-12-20T07:52:28;2.30;;;1.92;;
49942;SDS011;36011;53.362;58.948;2023-12-20T07:55:30;4.07;;;2.80;;
49942;SDS011;36011;53.362;58.948;2023-12-20T07:58:34;2.92;;;2.20;;
49942;SDS011;36011;53.362;58.948;2023-12-20T08:01:40;2.78;;;1.48;;
49942;SDS011;36011;53.362;58.948;2023-12-20T08:04:45;2.58;;;2.00;;
49942;SDS011;36011;53.362;58.948;2023-12-20T08:07:47;3.42;;;1.98;;
49942;SDS011;36011;53.362;58.948;2023-12-20T08:10:48;3.35;;;1.77;;
49942;SDS011;36011;53.362;58.948;2023-12-20T08:13:50;2.90;;;2.05;;
49942;SDS011;36011;53.362;58.948;2023-12-20T08:16:57;2.05;;;1.80;;
49942;SDS011;36011;53.362;58.948;2023-12-20T08:19:58;3.70;;;2.03;;
49942;SDS011;36011;53.362;58.948;2023-12-20T08:23:07;2.65;;;1.42;;
49942;SDS011;36011;53.362;58.948;2023-12-20T08:26:08;2.92;;;1.90;;
49942;SDS011;36011;53.362;58.948;2023-12-20T08:29:18;3.45;;;2.35;;
49942;SDS011;36011;53.362;58.948;2023-12-20T08:32:24;2.70;;;2.10;;
49942;SDS011;36011;53.362;58.948;2023-12-20T08:35:33;4.45;;;3.55;;
49942;SDS011;36011;53.362;58.948;2023-12-20T08:38:36;4.43;;;1.80;;
49942;SDS011;36011;53.362;58.948;2023-12-20T08:41:40;1.95;;;1.60;;
49942;SDS011;36011;53.362;58.948;2023-12-20T08:44:45;2.55;;;1.55;;
49942;SDS011;36011;53.362;58.948;2023-12-20T08:47:48;2.92;;;1.88;;
49942;SDS011;36011;53.362;58.948;2023-12-20T08:50:52;1.60;;;1.45;;
49942;SDS011;36011;53.362;58.948;2023-12-20T08:53:55;1.52;;;0.90;;
49942;SDS011;36011;53.362;58.948;2023-12-20T08:56:56;2.25;;;1.38;;
49942;SDS011;36011;53.362;58.948;2023-12-20T09:00:00;1.75;;;1.00;;
49942;SDS011;36011;53.362;58.948;2023-12-20T09:03:09;1.77;;;1.23;;
49942;SDS011;36011;53.362;58.948;2023-12-20T09:06:14;2.13;;;1.00;;
49942;SDS011;36011;53.362;58.948;2023-12-20T09:09:18;3.25;;;1.08;;
49942;SDS011;36011;53.362;58.948;2023-12-20T09:12:23;2.67;;;1.30;;
49942;SDS011;36011;53.362;58.948;2023-12-20T09:15:26;0.80;;;0.80;;
49942;SDS011;36011;53.362;58.948;2023-12-20T09:18:34;2.35;;;1.00;;
49942;SDS011;36011;53.362;58.948;2023-12-20T09:21:36;1.38;;;0.63;;
49942;SDS011;36011;53.362;58.948;2023-12-20T09:24:40;1.13;;;0.50;;
49942;SDS011;36011;53.362;58.948;2023-12-20T09:27:41;0.98;;;0.75;;
49942;SDS011;36011;53.362;58.948;2023-12-20T09:30:45;0.40;;;0.40;;
49942;SDS011;36011;53.362;58.948;2023-12-20T09:33:49;2.03;;;0.85;;
49942;SDS011;36011;53.362;58.948;2023-12-20T09:36:52;1.55;;;1.00;;
49942;SDS011;36011;53.362;58.948;2023-12-20T09:39:54;1.50;;;0.60;;
49942;SDS011;36011;53.362;58.948;2023-12-20T09:46:06;0.50;;;0.50;;
49942;SDS011;36011;53.362;58.948;2023-12-20T09:49:11;0.60;;;0.60;;
49942;SDS011;36011;53.362;58.948;2023-12-20T09:52:14;0.98;;;0.68;;
49942;SDS011;36011;53.362;58.948;2023-12-20T09:55:22;0.40;;;0.40;;
49942;SDS011;36011;53.362;58.948;2023-12-20T09:58:30;0.50;;;0.50;;
49942;SDS011;36011;53.362;58.948;2023-12-20T10:01:39;1.40;;;0.70;;
49942;SDS011;36011;53.362;58.948;2023-12-20T10:04:46;0.98;;;0.60;;
49942;SDS011;36011;53.362;58.948;2023-12-20T10:07:56;0.40;;;0.40;;
49942;SDS011;36011;53.362;58.948;2023-12-20T10:11:00;0.68;;;0.68;;
49942;SDS011;36011;53.362;58.948;2023-12-20T10:14:07;0.30;;;0.30;;
49942;SDS011;36011;53.362;58.948;2023-12-20T10:17:11;0.25;;;0.20;;
49942;SDS011;36011;53.362;58.948;2023-12-20T10:20:20;0.70;;;0.55;;
49942;SDS011;36011;53.362;58.948;2023-12-20T10:23:26;0.25;;;0.25;;
49942;SDS011;36011;53.362;58.948;2023-12-20T10:26:31;0.70;;;0.50;;
49942;SDS011;36011;53.362;58.948;2023-12-20T10:29:40;1.00;;;0.50;;
49942;SDS011;36011;53.362;58.948;2023-12-20T10:32:42;0.40;;;0.40;;
49942;SDS011;36011;53.362;58.948;2023-12-20T10:35:43;0.30;;;0.30;;
49942;SDS011;36011;53.362;58.948;2023-12-20T10:38:45;0.80;;;0.80;;
49942;SDS011;36011;53.362;58.948;2023-12-20T10:41:54;0.38;;;0.38;;
49942;SDS011;36011;53.362;58.948;2023-12-20T10:44:55;1.00;;;0.60;;
49942;SDS011;36011;53.362;58.948;2023-12-20T10:47:57;0.95;;;0.38;;
49942;SDS011;36011;53.362;58.948;2023-12-20T10:51:02;0.40;;;0.40;;
49942;SDS011;36011;53.362;58.948;2023-12-20T10:54:10;0.38;;;0.38;;
49942;SDS011;36011;53.362;58.948;2023-12-20T10:57:13;0.40;;;0.30;;
49942;SDS011;36011;53.362;58.948;2023-12-20T11:00:21;1.30;;;0.38;;
49942;SDS011;36011;53.362;58.948;2023-12-20T11:03:29;0.45;;;0.45;;
49942;SDS011;36011;53.362;58.948;2023-12-20T11:10:20;0.28;;;0.28;;
49942;SDS011;36011;53.362;58.948;2023-12-20T11:13:30;0.20;;;0.20;;
49942;SDS011;36011;53.362;58.948;2023-12-20T11:16:45;0.32;;;0.32;;
49942;SDS011;36011;53.362;58.948;2023-12-20T11:22:56;0.20;;;0.20;;
49942;SDS011;36011;53.362;58.948;2023-12-20T11:26:04;0.63;;;0.30;;
49942;SDS011;36011;53.362;58.948;2023-12-20T11:29:29;0.90;;;0.20;;
49942;SDS011;36011;53.362;58.948;2023-12-20T11:32:37;0.95;;;0.60;;
49942;SDS011;36011;53.362;58.948;2023-12-20T11:35:41;0.93;;;0.60;;
49942;SDS011;36011;53.362;58.948;2023-12-20T11:38:57;0.70;;;0.38;;
49942;SDS011;36011;53.362;58.948;2023-12-20T11:42:05;0.40;;;0.40;;
49942;SDS011;36011;53.362;58.948;2023-12-20T11:45:13;0.35;;;0.35;;
49942;SDS011;36011;53.362;58.948;2023-12-20T11:48:19;0.30;;;0.30;;
49942;SDS011;36011;53.362;58.948;2023-12-20T11:51:23;0.28;;;0.28;;
49942;SDS011;36011;53.362;58.948;2023-12-20T11:54:31;0.40;;;0.30;;
49942;SDS011;36011;53.362;58.948;2023-12-20T11:57:35;0.40;;;0.40;;
49942;SDS011;36011;53.362;58.948;2023-12-20T12:00:44;0.30;;;0.30;;
49942;SDS011;36011;53.362;58.948;2023-12-20T12:04:04;0.10;;;0.10;;
49942;SDS011;36011;53.362;58.948;2023-12-20T12:07:09;0.38;;;0.38;;
49942;SDS011;36011;53.362;58.948;2023-12-20T12:10:14;0.50;;;0.45;;
49942;SDS011;36011;53.362;58.948;2023-12-20T12:13:20;0.32;;;0.32;;
49942;SDS011;36011;53.362;58.948;2023-12-20T12:16:21;1.17;;;0.50;;
49942;SDS011;36011;53.362;58.948;2023-12-20T12:19:26;0.35;;;0.28;;
49942;SDS011;36011;53.362;58.948;2023-12-20T12:22:31;0.30;;;0.30;;
49942;SDS011;36011;53.362;58.948;2023-12-20T12:25:37;0.30;;;0.30;;
49942;SDS011;36011;53.362;58.948;2023-12-20T12:28:46;0.85;;;0.30;;
49942;SDS011;36011;53.362;58.948;2023-12-20T12:31:52;0.20;;;0.20;;
49942;SDS011;36011;53.362;58.948;2023-12-20T12:34:55;0.28;;;0.28;;
49942;SDS011;36011;53.362;58.948;2023-12-20T12:37:58;0.35;;;0.30;;
49942;SDS011;36011;53.362;58.948;2023-12-20T12:41:04;0.28;;;0.28;;
49942;SDS011;36011;53.362;58.948;2023-12-20T12:44:08;1.08;;;0.60;;
49942;SDS011;36011;53.362;58.948;2023-12-20T12:47:12;1.38;;;0.70;;
49942;SDS011;36011;53.362;58.948;2023-12-20T12:50:14;0.20;;;0.20;;
49942;SDS011;36011;53.362;58.948;2023-12-20T12:53:20;0.60;;;0.30;;
49942;SDS011;36011;53.362;58.948;2023-12-20T12:56:24;0.20;;;0.20;;
49942;SDS011;36011;53.362;58.948;2023-12-20T12:59:28;0.20;;;0.20;;
49942;SDS011;36011;53.362;58.948;2023-12-20T13:02:33;0.30;;;0.30;;
49942;SDS011;36011;53.362;58.948;2023-12-20T13:05:41;0.10;;;0.10;;
49942;SDS011;36011;53.362;58.948;2023-12-20T13:08:45;0.20;;;0.20;;
49942;SDS011;36011;53.362;58.948;2023-12-20T13:11:52;0.25;;;0.25;;
49942;SDS011;36011;53.362;58.948;2023-12-20T13:14:53;0.80;;;0.10;;
49942;SDS011;36011;53.362;58.948;2023-12-20T13:18:00;0.10;;;0.10;;
49942;SDS011;36011;53.362;58.948;2023-12-20T13:21:04;0.30;;;0.30;;
49942;SDS011;36011;53.362;58.948;2023-12-20T13:24:06;0.20;;;0.20;;
49942;SDS011;36011;53.362;58.948;2023-12-20T13:27:12;0.20;;;0.20;;
49942;SDS011;36011;53.362;58.948;2023-12-20T13:30:19;0.20;;;0.20;;
49942;SDS011;36011;53.362;58.948;2023-12-20T13:33:23;0.32;;;0.17;;
49942;SDS011;36011;53.362;58.948;2023-12-20T13:36:27;0.10;;;0.10;;
49942;SDS011;36011;53.362;58.948;2023-12-20T13:39:28;1.27;;;0.63;;
49942;SDS011;36011;53.362;58.948;2023-12-20T13:42:30;0.20;;;0.20;;
49942;SDS011;36011;53.362;58.948;2023-12-20T13:45:37;0.10;;;0.10;;
49942;SDS011;36011;53.362;58.948;2023-12-20T13:48:40;0.20;;;0.20;;
49942;SDS011;36011;53.362;58.948;2023-12-20T13:51:45;0.20;;;0.20;;
49942;SDS011;36011;53.362;58.948;2023-12-20T13:54:49;0.45;;;0.25;;
49942;SDS011;36011;53.362;58.948;2023-12-20T13:57:56;0.30;;;0.30;;
49942;SDS011;36011;53.362;58.948;2023-12-20T14:01:03;0.22;;;0.10;;
49942;SDS011;36011;53.362;58.948;2023-12-20T14:04:07;0.35;;;0.30;;
49942;SDS011;36011;53.362;58.948;2023-12-20T14:07:16;0.20;;;0.20;;
49942;SDS011;36011;53.362;58.948;2023-12-20T14:10:19;0.30;;;0.10;;
49942;SDS011;36011;53.362;58.948;2023-12-20T14:13:24;0.47;;;0.20;;
49942;SDS011;36011;53.362;58.948;2023-12-20T14:16:29;0.50;;;0.25;;
49942;SDS011;36011;53.362;58.948;2023-12-20T14:19:30;0.35;;;0.20;;
49942;SDS011;36011;53.362;58.948;2023-12-20T14:25:39;0.10;;;0.10;;
49942;SDS011;36011;53.362;58.948;2023-12-20T14:28:44;0.32;;;0.32;;
49942;SDS011;36011;53.362;58.948;2023-12-20T14:31:51;0.60;;;0.40;;
49942;SDS011;36011;53.362;58.948;2023-12-20T14:34:55;0.20;;;0.20;;
49942;SDS011;36011;53.362;58.948;2023-12-20T14:38:01;1.58;;;0.38;;
49942;SDS011;36011;53.362;58.948;2023-12-20T14:41:07;0.77;;;0.57;;
49942;SDS011;36011;53.362;58.948;2023-12-20T14:47:10;4.97;;;1.90;;
49942;SDS011;36011;53.362;58.948;2023-12-20T14:50:18;2.88;;;1.60;;
49942;SDS011;36011;53.362;58.948;2023-12-20T14:56:27;0.15;;;0.15;;
49942;SDS011;36011;53.362;58.948;2023-12-20T14:59:33;0.20;;;0.20;;
49942;SDS011;36011;53.362;58.948;2023-12-20T15:02:38;0.10;;;0.10;;
49942;SDS011;36011;53.362;58.948;2023-12-20T15:05:39;0.30;;;0.30;;
49942;SDS011;36011;53.362;58.948;2023-12-20T15:08:47;0.20;;;0.20;;
49942;SDS011;36011;53.362;58.948;2023-12-20T15:11:55;0.98;;;0.60;;
49942;SDS011;36011;53.362;58.948;2023-12-20T15:15:02;0.20;;;0.20;;
49942;SDS011;36011;53.362;58.948;2023-12-20T15:18:06;0.10;;;0.10;;
49942;SDS011;36011;53.362;58.948;2023-12-20T15:21:13;0.52;;;0.20;;
49942;SDS011;36011;53.362;58.948;2023-12-20T15:24:19;0.08;;;0.08;;
49942;SDS011;36011;53.362;58.948;2023-12-20T15:27:33;0.17;;;0.17;;
49942;SDS011;36011;53.362;58.948;2023-12-20T15:30:41;0.10;;;0.10;;
49942;SDS011;36011;53.362;58.948;2023-12-20T15:33:43;0.47;;;0.28;;
49942;SDS011;36011;53.362;58.948;2023-12-20T15:36:49;0.65;;;0.52;;
49942;SDS011;36011;53.362;58.948;2023-12-20T15:39:55;0.20;;;0.20;;
49942;SDS011;36011;53.362;58.948;2023-12-20T15:46:02;0.43;;;0.30;;
49942;SDS011;36011;53.362;58.948;2023-12-20T15:49:05;0.30;;;0.30;;
49942;SDS011;36011;53.362;58.948;2023-12-20T15:52:07;1.05;;;0.20;;
49942;SDS011;36011;53.362;58.948;2023-12-20T15:55:11;0.13;;;0.13;;
49942;SDS011;36011;53.362;58.948;2023-12-20T15:58:12;0.20;;;0.20;;
49942;SDS011;36011;53.362;58.948;2023-12-20T16:01:19;0.38;;;0.17;;
49942;SDS011;36011;53.362;58.948;2023-12-20T16:04:23;0.47;;;0.30;;
49942;SDS011;36011;53.362;58.948;2023-12-20T16:07:25;0.63;;;0.40;;
49942;SDS011;36011;53.362;58.948;2023-12-20T16:10:29;0.45;;;0.30;;
49942;SDS011;36011;53.362;58.948;2023-12-20T16:13:33;0.20;;;0.20;;
49942;SDS011;36011;53.362;58.948;2023-12-20T16:16:40;1.02;;;0.20;;
49942;SDS011;36011;53.362;58.948;2023-12-20T16:22:45;0.10;;;0.10;;
49942;SDS011;36011;53.362;58.948;2023-12-20T16:25:46;0.30;;;0.25;;
49942;SDS011;36011;53.362;58.948;2023-12-20T16:28:50;1.17;;;0.20;;
49942;SDS011;36011;53.362;58.948;2023-12-20T16:31:52;0.15;;;0.15;;
49942;SDS011;36011;53.362;58.948;2023-12-20T16:34:55;0.88;;;0.20;;
49942;SDS011;36011;53.362;58.948;2023-12-20T16:38:07;0.70;;;0.30;;
49942;SDS011;36011;53.362;58.948;2023-12-20T16:41:10;1.85;;;0.63;;
49942;SDS011;36011;53.362;58.948;2023-12-20T16:44:12;2.08;;;0.30;;
49942;SDS011;36011;53.362;58.948;2023-12-20T16:47:13;0.88;;;0.40;;
49942;SDS011;36011;53.362;58.948;2023-12-20T16:50:14;0.73;;;0.50;;
49942;SDS011;36011;53.362;58.948;2023-12-20T16:53:21;2.75;;;0.70;;
49942;SDS011;36011;53.362;58.948;2023-12-20T16:56:22;4.75;;;1.63;;
49942;SDS011;36011;53.362;58.948;2023-12-20T16:59:26;2.50;;;0.70;;
49942;SDS011;36011;53.362;58.948;2023-12-20T17:02:36;0.40;;;0.40;;
49942;SDS011;36011;53.362;58.948;2023-12-20T17:05:42;0.40;;;0.40;;
49942;SDS011;36011;53.362;58.948;2023-12-20T17:08:46;0.17;;;0.17;;
49942;SDS011;36011;53.362;58.948;2023-12-20T17:11:51;0.10;;;0.10;;
49942;SDS011;36011;53.362;58.948;2023-12-20T17:14:56;0.20;;;0.20;;
49942;SDS011;36011;53.362;58.948;2023-12-20T17:18:00;0.03;;;0.03;;
49942;SDS011;36011;53.362;58.948;2023-12-20T17:21:03;0.43;;;0.30;;
49942;SDS011;36011;53.362;58.948;2023-12-20T17:24:10;0.22;;;0.20;;
49942;SDS011;36011;53.362;58.948;2023-12-20T17:27:14;0.28;;;0.28;;
49942;SDS011;36011;53.362;58.948;2023-12-20T17:30:16;0.10;;;0.10;;
49942;SDS011;36011;53.362;58.948;2023-12-20T17:33:20;0.65;;;0.30;;
49942;SDS011;36011;53.362;58.948;2023-12-20T17:36:23;0.20;;;0.20;;
49942;SDS011;36011;53.362;58.948;2023-12-20T17:39:27;0.45;;;0.30;;
49942;SDS011;36011;53.362;58.948;2023-12-20T17:42:28;0.20;;;0.20;;
49942;SDS011;36011;53.362;58.948;2023-12-20T17:45:32;0.20;;;0.20;;
49942;SDS011;36011;53.362;58.948;2023-12-20T17:48:38;0.10;;;0.10;;
49942;SDS011;36011;53.362;58.948;2023-12-20T17:51:46;0.30;;;0.30;;
49942;SDS011;36011;53.362;58.948;2023-12-20T17:54:54;0.60;;;0.40;;
49942;SDS011;36011;53.362;58.948;2023-12-20T17:58:01;0.20;;;0.20;;
49942;SDS011;36011;53.362;58.948;2023-12-20T18:01:07;0.30;;;0.30;;
49942;SDS011;36011;53.362;58.948;2023-12-20T18:04:12;0.30;;;0.15;;
49942;SDS011;36011;53.362;58.948;2023-12-20T18:07:16;2.53;;;0.40;;
49942;SDS011;36011;53.362;58.948;2023-12-20T18:10:18;0.30;;;0.30;;
49942;SDS011;36011;53.362;58.948;2023-12-20T18:13:26;0.10;;;0.10;;
49942;SDS011;36011;53.362;58.948;2023-12-20T18:16:31;1.60;;;0.25;;
49942;SDS011;36011;53.362;58.948;2023-12-20T18:19:35;0.38;;;0.38;;
49942;SDS011;36011;53.362;58.948;2023-12-20T18:25:45;0.70;;;0.30;;
49942;SDS011;36011;53.362;58.948;2023-12-20T18:28:51;0.38;;;0.17;;
49942;SDS011;36011;53.362;58.948;2023-12-20T18:31:57;0.30;;;0.30;;
49942;SDS011;36011;53.362;58.948;2023-12-20T18:35:01;0.10;;;0.10;;
49942;SDS011;36011;53.362;58.948;2023-12-20T18:38:06;0.28;;;0.20;;
49942;SDS011;36011;53.362;58.948;2023-12-20T18:41:10;0.50;;;0.15;;